createdAt,value
2017-08-06T00:00:27.124Z,0
2017-08-06T00:01:27.879Z,0
2017-08-06T00:02:28.753Z,0
2017-08-06T00:03:29.564Z,0
2017-08-06T00:04:31.175Z,0
2017-08-06T00:05:32.001Z,0
2017-08-06T00:06:32.824Z,0
2017-08-06T00:07:33.607Z,0
2017-08-06T00:08:34.419Z,0
2017-08-06T00:09:35.276Z,0
2017-08-06T00:11:51.658Z,0
2017-08-06T00:12:52.685Z,0
2017-08-06T00:13:53.473Z,0
2017-08-06T00:14:54.267Z,0
2017-08-06T00:15:55.026Z,0
2017-08-06T00:16:55.773Z,0
2017-08-06T00:17:56.527Z,0
2017-08-06T00:18:57.249Z,0
2017-08-06T00:19:58.031Z,0
2017-08-06T00:20:58.788Z,0
2017-08-06T00:21:59.560Z,0
2017-08-06T00:23:00.279Z,0
2017-08-06T00:24:01.111Z,0
2017-08-06T00:25:01.851Z,0
2017-08-06T00:26:02.660Z,0
2017-08-06T00:27:03.393Z,0
2017-08-06T00:28:04.135Z,0
2017-08-06T00:29:04.899Z,0
2017-08-06T00:30:05.660Z,0
2017-08-06T00:31:06.448Z,0
2017-08-06T00:32:07.209Z,0
2017-08-06T00:33:07.997Z,0
2017-08-06T00:34:09.015Z,0
2017-08-06T00:35:09.857Z,0
2017-08-06T00:36:10.761Z,0
2017-08-06T00:37:11.684Z,0
2017-08-06T00:38:12.500Z,0
2017-08-06T00:39:13.306Z,0
2017-08-06T00:40:14.160Z,0
2017-08-06T00:41:15.008Z,0
2017-08-06T00:42:15.873Z,0
2017-08-06T00:43:16.677Z,0
2017-08-06T00:44:17.468Z,0
2017-08-06T00:45:18.288Z,0
2017-08-06T00:46:19.131Z,0
2017-08-06T00:47:19.924Z,0
2017-08-06T00:48:20.758Z,0
2017-08-06T00:49:21.587Z,0
2017-08-06T00:50:22.425Z,0
2017-08-06T00:51:23.232Z,0
2017-08-06T00:52:24.088Z,0
2017-08-06T00:53:24.932Z,0
2017-08-06T00:54:25.821Z,0
2017-08-06T00:55:26.543Z,0
2017-08-06T00:56:27.429Z,0
2017-08-06T00:57:28.219Z,0
2017-08-06T00:58:28.974Z,0
2017-08-06T00:59:29.788Z,0
2017-08-06T01:00:30.683Z,0
2017-08-06T01:01:31.510Z,0
2017-08-06T01:02:32.352Z,0
2017-08-06T01:03:33.127Z,0
2017-08-06T01:04:34.079Z,0
2017-08-06T01:05:34.951Z,0
2017-08-06T01:06:35.749Z,0
2017-08-06T01:07:36.793Z,0
2017-08-06T01:08:37.594Z,0
2017-08-06T01:09:39.158Z,0
2017-08-06T01:10:39.977Z,0
2017-08-06T01:11:40.784Z,0
2017-08-06T01:12:41.660Z,0
2017-08-06T01:13:42.436Z,0
2017-08-06T01:14:43.267Z,0
2017-08-06T01:15:44.173Z,0
2017-08-06T01:16:44.895Z,0
2017-08-06T01:17:45.944Z,0
2017-08-06T01:18:46.766Z,0
2017-08-06T01:19:47.500Z,0
2017-08-06T01:20:48.348Z,0
2017-08-06T01:21:49.123Z,0
2017-08-06T01:22:49.858Z,0
2017-08-06T01:23:50.602Z,0
2017-08-06T01:24:51.520Z,0
2017-08-06T01:25:52.383Z,0
2017-08-06T01:26:53.167Z,0
2017-08-06T01:27:53.862Z,0
2017-08-06T01:28:54.668Z,0
2017-08-06T01:29:55.517Z,0
2017-08-06T01:30:56.375Z,0
2017-08-06T01:31:57.201Z,0
2017-08-06T01:32:57.979Z,0
2017-08-06T01:33:58.851Z,0
2017-08-06T01:34:59.766Z,0
2017-08-06T01:36:00.514Z,0
2017-08-06T01:37:01.283Z,0
2017-08-06T01:38:02.111Z,0
2017-08-06T01:39:02.994Z,0
2017-08-06T01:40:03.884Z,0
2017-08-06T01:41:04.752Z,0
2017-08-06T01:42:05.605Z,0
2017-08-06T01:43:06.436Z,0
2017-08-06T01:44:07.311Z,0
2017-08-06T01:45:08.072Z,0
2017-08-06T01:46:08.976Z,0
2017-08-06T01:47:09.743Z,0
2017-08-06T01:48:10.650Z,0
2017-08-06T01:49:11.456Z,0
2017-08-06T01:50:12.302Z,0
2017-08-06T01:51:13.135Z,0
2017-08-06T01:52:13.958Z,0
2017-08-06T01:53:14.771Z,0
2017-08-06T01:54:15.635Z,0
2017-08-06T01:55:16.446Z,0
2017-08-06T01:56:17.274Z,0
2017-08-06T01:57:18.066Z,0
2017-08-06T01:58:19.110Z,0
2017-08-06T01:59:19.932Z,0
2017-08-06T02:00:21.042Z,0
2017-08-06T02:01:21.840Z,0
2017-08-06T02:02:22.680Z,0
2017-08-06T02:03:23.523Z,0
2017-08-06T02:04:24.389Z,0
2017-08-06T02:05:25.432Z,0
2017-08-06T02:06:26.234Z,0
2017-08-06T02:07:27.188Z,0
2017-08-06T02:08:27.989Z,0
2017-08-06T02:09:28.820Z,0
2017-08-06T02:10:29.745Z,0
2017-08-06T02:11:30.566Z,0
2017-08-06T02:12:31.372Z,0
2017-08-06T02:13:32.236Z,0
2017-08-06T02:14:32.967Z,0
2017-08-06T02:15:33.859Z,0
2017-08-06T02:16:34.570Z,0
2017-08-06T02:17:35.470Z,0
2017-08-06T02:18:36.311Z,0
2017-08-06T02:19:37.173Z,0
2017-08-06T02:20:37.954Z,0
2017-08-06T02:21:38.932Z,0
2017-08-06T02:22:39.720Z,0
2017-08-06T02:23:41.319Z,0
2017-08-06T02:24:42.498Z,0
2017-08-06T02:25:43.327Z,0
2017-08-06T02:26:44.105Z,0
2017-08-06T02:27:44.896Z,0
2017-08-06T02:28:45.743Z,0
2017-08-06T02:29:46.627Z,0
2017-08-06T02:30:47.546Z,0
2017-08-06T02:31:48.332Z,0
2017-08-06T02:32:49.212Z,0
2017-08-06T02:33:50.354Z,0
2017-08-06T02:34:51.215Z,0
2017-08-06T02:35:52.168Z,0
2017-08-06T02:36:53.003Z,0
2017-08-06T02:37:53.877Z,0
2017-08-06T02:38:54.707Z,0
2017-08-06T02:39:57.993Z,0
2017-08-06T02:40:58.890Z,0
2017-08-06T02:41:59.647Z,0
2017-08-06T02:43:00.419Z,0
2017-08-06T02:44:01.501Z,0
2017-08-06T02:45:02.238Z,0
2017-08-06T02:46:03.244Z,0
2017-08-06T02:47:04.059Z,0
2017-08-06T02:48:04.889Z,0
2017-08-06T02:49:05.701Z,0
2017-08-06T02:50:06.684Z,0
2017-08-06T02:51:07.746Z,0
2017-08-06T02:52:09.149Z,0
2017-08-06T02:53:09.845Z,0
2017-08-06T02:54:10.585Z,0
2017-08-06T02:55:11.424Z,0
2017-08-06T02:56:12.318Z,0
2017-08-06T02:57:13.077Z,0
2017-08-06T02:58:13.916Z,0
2017-08-06T02:59:14.707Z,0
2017-08-06T03:00:15.628Z,0
2017-08-06T03:01:17.066Z,0
2017-08-06T03:02:18.559Z,0
2017-08-06T03:03:19.455Z,0
2017-08-06T03:04:20.227Z,0
2017-08-06T03:05:21.023Z,0
2017-08-06T03:06:21.846Z,0
2017-08-06T03:07:22.731Z,0
2017-08-06T03:08:23.559Z,0
2017-08-06T03:09:24.528Z,0
2017-08-06T03:10:25.482Z,0
2017-08-06T03:11:26.325Z,4
2017-08-06T03:12:27.086Z,4
2017-08-06T03:13:28.298Z,0
2017-08-06T03:14:29.778Z,0
2017-08-06T03:15:30.554Z,4
2017-08-06T03:16:31.369Z,0
2017-08-06T03:17:32.220Z,0
2017-08-06T03:18:33.036Z,4
2017-08-06T03:19:34.348Z,0
2017-08-06T03:20:35.821Z,4
2017-08-06T03:21:36.642Z,4
2017-08-06T03:22:37.610Z,4
2017-08-06T03:23:38.401Z,4
2017-08-06T03:24:39.886Z,4
2017-08-06T03:25:41.136Z,8
2017-08-06T03:26:42.100Z,8
2017-08-06T03:27:42.795Z,8
2017-08-06T03:28:43.777Z,12
2017-08-06T03:29:44.966Z,12
2017-08-06T03:30:46.004Z,12
2017-08-06T03:31:46.718Z,12
2017-08-06T03:32:47.545Z,12
2017-08-06T03:33:48.269Z,16
2017-08-06T03:34:49.003Z,20
2017-08-06T03:35:50.111Z,20
2017-08-06T03:36:51.072Z,20
2017-08-06T03:37:52.468Z,24
2017-08-06T03:38:53.632Z,28
2017-08-06T03:39:54.499Z,28
2017-08-06T03:40:55.321Z,32
2017-08-06T03:41:56.501Z,36
2017-08-06T03:42:57.260Z,40
2017-08-06T03:43:57.995Z,40
2017-08-06T03:44:58.819Z,44
2017-08-06T03:46:00.371Z,48
2017-08-06T03:47:01.883Z,56
2017-08-06T03:48:03.200Z,60
2017-08-06T03:49:03.995Z,64
2017-08-06T03:50:04.850Z,68
2017-08-06T03:51:05.876Z,72
2017-08-06T03:52:06.825Z,72
2017-08-06T03:53:07.588Z,76
2017-08-06T03:54:09.352Z,76
2017-08-06T03:55:10.117Z,84
2017-08-06T03:56:11.573Z,92
2017-08-06T03:57:12.399Z,96
2017-08-06T03:58:13.798Z,108
2017-08-06T03:59:14.645Z,116
2017-08-06T04:00:15.537Z,124
2017-08-06T04:01:16.292Z,136
2017-08-06T04:02:17.235Z,156
2017-08-06T04:03:18.170Z,176
2017-08-06T04:04:20.581Z,200
2017-08-06T04:05:20.853Z,228
2017-08-06T04:06:22.205Z,248
2017-08-06T04:07:23.158Z,252
2017-08-06T04:08:23.950Z,252
2017-08-06T04:09:24.739Z,276
2017-08-06T04:10:26.219Z,352
2017-08-06T04:11:27.625Z,408
2017-08-06T04:12:28.392Z,404
2017-08-06T04:13:29.208Z,424
2017-08-06T04:14:29.999Z,448
2017-08-06T04:15:30.824Z,448
2017-08-06T04:16:32.229Z,416
2017-08-06T04:17:33.143Z,408
2017-08-06T04:18:34.040Z,460
2017-08-06T04:19:34.842Z,584
2017-08-06T04:20:37.080Z,644
2017-08-06T04:21:37.670Z,616
2017-08-06T04:22:39.091Z,556
2017-08-06T04:23:39.842Z,632
2017-08-06T04:24:40.653Z,620
2017-08-06T04:25:41.980Z,708
2017-08-06T04:26:42.864Z,768
2017-08-06T04:27:43.649Z,828
2017-08-06T04:28:44.457Z,868
2017-08-06T04:29:45.307Z,992
2017-08-06T04:30:46.127Z,1144
2017-08-06T04:32:49.799Z,1536
2017-08-06T04:33:50.514Z,1672
2017-08-06T04:34:52.035Z,1260
2017-08-06T04:35:53.293Z,1812
2017-08-06T04:36:54.650Z,2116
2017-08-06T04:37:55.522Z,1932
2017-08-06T04:38:56.292Z,2032
2017-08-06T04:39:57.103Z,2472
2017-08-06T04:40:58.088Z,2588
2017-08-06T04:41:59.229Z,2408
2017-08-06T04:43:00.045Z,1828
2017-08-06T04:44:00.876Z,2036
2017-08-06T04:45:02.004Z,1424
2017-08-06T04:46:02.849Z,1404
2017-08-06T04:47:04.041Z,1800
2017-08-06T04:48:04.843Z,3244
2017-08-06T04:49:05.608Z,2000
2017-08-06T04:50:06.561Z,2388
2017-08-06T04:51:07.361Z,2780
2017-08-06T04:52:08.212Z,4556
2017-08-06T04:53:09.764Z,3640
2017-08-06T04:54:10.791Z,1872
2017-08-06T04:55:11.670Z,1296
2017-08-06T04:56:13.371Z,1664
2017-08-06T04:57:14.484Z,2048
2017-08-06T04:58:15.352Z,2412
2017-08-06T04:59:17.363Z,2444
2017-08-06T05:00:18.787Z,2188
2017-08-06T05:01:25.877Z,2452
2017-08-06T05:02:26.805Z,2636
2017-08-06T05:03:27.548Z,2732
2017-08-06T05:04:28.393Z,2056
2017-08-06T05:05:29.681Z,1744
2017-08-06T05:06:30.771Z,1628
2017-08-06T05:07:31.690Z,1784
2017-08-06T05:08:32.465Z,1880
2017-08-06T05:09:33.822Z,3292
2017-08-06T05:11:50.184Z,7032
2017-08-06T05:12:50.985Z,6340
2017-08-06T05:13:51.711Z,5532
2017-08-06T05:14:52.533Z,5128
2017-08-06T05:15:53.361Z,6676
2017-08-06T05:16:54.223Z,7640
2017-08-06T05:17:55.522Z,5976
2017-08-06T05:18:56.854Z,4020
2017-08-06T05:19:57.601Z,3040
2017-08-06T05:20:58.465Z,3540
2017-08-06T05:21:59.252Z,4288
2017-08-06T05:23:00.215Z,7640
2017-08-06T05:24:01.029Z,9728
2017-08-06T05:25:02.244Z,6708
2017-08-06T05:26:03.272Z,4736
2017-08-06T05:27:04.062Z,4888
2017-08-06T05:28:04.828Z,4896
2017-08-06T05:29:05.590Z,5236
2017-08-06T05:30:06.712Z,5280
2017-08-06T05:31:07.530Z,5104
2017-08-06T05:32:08.331Z,5068
2017-08-06T05:33:09.118Z,5648
2017-08-06T05:34:09.874Z,8040
2017-08-06T05:35:10.893Z,9440
2017-08-06T05:36:12.182Z,9008
2017-08-06T05:37:12.891Z,5880
2017-08-06T05:38:13.665Z,4212
2017-08-06T05:39:14.391Z,4200
2017-08-06T05:40:15.519Z,4188
2017-08-06T05:41:16.235Z,4088
2017-08-06T05:42:17.113Z,3912
2017-08-06T05:43:17.836Z,3648
2017-08-06T05:44:18.639Z,3792
2017-08-06T05:45:19.552Z,4312
2017-08-06T05:46:20.757Z,3424
2017-08-06T05:47:21.472Z,3604
2017-08-06T05:48:23.005Z,4060
2017-08-06T05:49:23.767Z,4528
2017-08-06T05:50:24.593Z,4556
2017-08-06T05:51:25.340Z,4560
2017-08-06T05:52:26.329Z,4516
2017-08-06T05:53:27.281Z,4284
2017-08-06T05:54:28.041Z,6548
2017-08-06T05:55:28.924Z,10224
2017-08-06T05:56:29.741Z,6436
2017-08-06T05:57:30.515Z,4828
2017-08-06T05:58:31.340Z,4876
2017-08-06T05:59:32.093Z,4612
2017-08-06T06:00:32.979Z,4808
2017-08-06T06:01:33.724Z,4932
2017-08-06T06:02:34.689Z,4932
2017-08-06T06:03:35.467Z,4844
2017-08-06T06:04:36.276Z,4712
2017-08-06T06:05:37.049Z,4860
2017-08-06T06:06:37.889Z,4916
2017-08-06T06:07:38.631Z,4720
2017-08-06T06:08:39.372Z,4884
2017-08-06T06:09:40.159Z,5012
2017-08-06T06:10:41.081Z,5008
2017-08-06T06:11:42.269Z,5056
2017-08-06T06:12:43.086Z,5056
2017-08-06T06:13:44.057Z,4760
2017-08-06T06:14:45.281Z,4808
2017-08-06T06:15:46.107Z,4984
2017-08-06T06:16:46.947Z,4848
2017-08-06T06:17:47.833Z,4628
2017-08-06T06:18:48.676Z,4652
2017-08-06T06:19:49.679Z,4800
2017-08-06T06:20:50.695Z,4732
2017-08-06T06:21:51.563Z,4788
2017-08-06T06:22:52.408Z,4800
2017-08-06T06:23:53.205Z,4704
2017-08-06T06:24:55.585Z,4704
2017-08-06T06:25:56.698Z,4720
2017-08-06T06:26:58.077Z,4328
2017-08-06T06:27:58.843Z,4032
2017-08-06T06:28:59.619Z,4252
2017-08-06T06:30:00.433Z,4768
2017-08-06T06:31:01.252Z,5216
2017-08-06T06:32:02.459Z,5088
2017-08-06T06:33:03.253Z,4964
2017-08-06T06:34:04.011Z,4904
2017-08-06T06:35:05.266Z,4780
2017-08-06T06:36:06.680Z,4984
2017-08-06T06:37:07.621Z,5084
2017-08-06T06:38:08.744Z,5108
2017-08-06T06:39:09.576Z,5120
2017-08-06T06:40:10.641Z,4732
2017-08-06T06:41:11.675Z,5072
2017-08-06T06:42:12.817Z,5008
2017-08-06T06:43:13.740Z,4824
2017-08-06T06:44:14.654Z,4748
2017-08-06T06:45:15.564Z,4776
2017-08-06T06:46:16.698Z,5240
2017-08-06T06:47:17.944Z,5328
2017-08-06T06:48:18.828Z,5192
2017-08-06T06:49:19.709Z,5132
2017-08-06T06:50:20.564Z,5148
2017-08-06T06:51:22.129Z,5164
2017-08-06T06:52:22.964Z,4920
2017-08-06T06:53:24.129Z,4612
2017-08-06T06:54:25.348Z,4836
2017-08-06T06:55:26.112Z,5004
2017-08-06T06:56:27.041Z,5144
2017-08-06T06:57:28.146Z,5140
2017-08-06T06:58:29.075Z,4700
2017-08-06T06:59:30.022Z,5148
2017-08-06T07:00:30.996Z,5332
2017-08-06T07:01:31.885Z,4988
2017-08-06T07:02:32.853Z,5388
2017-08-06T07:03:33.966Z,5420
2017-08-06T07:04:35.228Z,5396
2017-08-06T07:05:36.114Z,5392
2017-08-06T07:06:36.913Z,4732
2017-08-06T07:07:37.675Z,4604
2017-08-06T07:08:38.763Z,4856
2017-08-06T07:09:40.630Z,4904
2017-08-06T07:10:42.461Z,4436
2017-08-06T07:11:43.456Z,3876
2017-08-06T07:12:44.540Z,3420
2017-08-06T07:13:45.323Z,3212
2017-08-06T07:14:46.575Z,3244
2017-08-06T07:15:47.435Z,3560
2017-08-06T07:16:48.815Z,3652
2017-08-06T07:17:49.802Z,3288
2017-08-06T07:18:51.362Z,3268
2017-08-06T07:19:52.181Z,3304
2017-08-06T07:20:53.080Z,3040
2017-08-06T07:21:54.008Z,2872
2017-08-06T07:22:55.022Z,2916
2017-08-06T07:23:56.037Z,3596
2017-08-06T07:24:57.410Z,3236
2017-08-06T07:25:58.460Z,2912
2017-08-06T07:26:59.703Z,2428
2017-08-06T07:28:00.567Z,2732
2017-08-06T07:29:01.470Z,1704
2017-08-06T07:30:02.417Z,1360
2017-08-06T07:31:03.283Z,1284
2017-08-06T07:32:04.110Z,1456
2017-08-06T07:33:05.096Z,1568
2017-08-06T07:34:05.981Z,1880
2017-08-06T07:35:06.921Z,2272
2017-08-06T07:36:07.986Z,2880
2017-08-06T07:37:09.326Z,2676
2017-08-06T07:38:10.109Z,2352
2017-08-06T07:39:11.018Z,2084
2017-08-06T07:40:11.902Z,1616
2017-08-06T07:41:12.790Z,1668
2017-08-06T07:42:13.629Z,1524
2017-08-06T07:43:14.503Z,1364
2017-08-06T07:44:15.926Z,1432
2017-08-06T07:45:16.853Z,1600
2017-08-06T07:46:17.671Z,2044
2017-08-06T07:47:19.331Z,1904
2017-08-06T07:48:20.115Z,2464
2017-08-06T07:49:21.038Z,3576
2017-08-06T07:50:22.090Z,4516
2017-08-06T07:51:23.209Z,3948
2017-08-06T07:52:24.002Z,3664
2017-08-06T07:53:25.135Z,3700
2017-08-06T07:54:26.118Z,4140
2017-08-06T07:55:27.801Z,4700
2017-08-06T07:56:29.652Z,4484
2017-08-06T07:57:30.987Z,2988
2017-08-06T07:58:32.205Z,1800
2017-08-06T07:59:33.069Z,1652
2017-08-06T08:00:34.398Z,1572
2017-08-06T08:01:35.351Z,1468
2017-08-06T08:02:36.245Z,1652
2017-08-06T08:03:37.552Z,3168
2017-08-06T08:04:38.403Z,3440
2017-08-06T08:06:41.666Z,3996
2017-08-06T08:07:42.617Z,4324
2017-08-06T08:08:43.407Z,3916
2017-08-06T08:09:44.230Z,3400
2017-08-06T08:10:45.881Z,3760
2017-08-06T08:11:46.745Z,3900
2017-08-06T08:12:51.238Z,3696
2017-08-06T08:13:50.823Z,2676
2017-08-06T08:14:51.568Z,1920
2017-08-06T08:15:52.471Z,1596
2017-08-06T08:16:53.272Z,1460
2017-08-06T08:17:54.416Z,1356
2017-08-06T08:18:55.140Z,1292
2017-08-06T08:19:56.713Z,1336
2017-08-06T08:20:57.657Z,1452
2017-08-06T08:21:59.108Z,1816
2017-08-06T08:23:00.024Z,1956
2017-08-06T08:24:00.959Z,4276
2017-08-06T08:25:01.805Z,4648
2017-08-06T08:26:02.685Z,4976
2017-08-06T08:27:03.907Z,3500
2017-08-06T08:28:04.989Z,2512
2017-08-06T08:29:06.185Z,2700
2017-08-06T08:30:07.510Z,2660
2017-08-06T08:31:08.637Z,2980
2017-08-06T08:32:09.724Z,1844
2017-08-06T08:33:11.197Z,1664
2017-08-06T08:34:12.928Z,1356
2017-08-06T08:35:13.735Z,1208
2017-08-06T08:36:14.637Z,1312
2017-08-06T08:37:15.460Z,1308
2017-08-06T08:38:21.244Z,1408
2017-08-06T08:39:22.332Z,1624
2017-08-06T08:40:23.432Z,1468
2017-08-06T08:41:24.344Z,1432
2017-08-06T08:42:25.423Z,1760
2017-08-06T08:43:26.508Z,1800
2017-08-06T08:44:27.419Z,1684
2017-08-06T08:45:28.307Z,2092
2017-08-06T08:46:29.185Z,2208
2017-08-06T08:47:30.249Z,3288
2017-08-06T08:48:31.200Z,5164
2017-08-06T08:49:32.029Z,52448
2017-08-06T08:50:33.042Z,4480
2017-08-06T08:51:34.643Z,13752
2017-08-06T08:52:35.556Z,96768
2017-08-06T08:53:36.392Z,6744
2017-08-06T08:54:37.392Z,4652
2017-08-06T08:55:38.655Z,3196
2017-08-06T08:56:39.531Z,4376
2017-08-06T08:57:40.300Z,7264
2017-08-06T08:58:41.226Z,94144
2017-08-06T08:59:42.228Z,88832
2017-08-06T09:00:43.102Z,88320
2017-08-06T09:01:43.882Z,49152
2017-08-06T09:02:45.056Z,75360
2017-08-06T09:03:45.924Z,72288
2017-08-06T09:04:47.494Z,60512
2017-08-06T09:05:48.422Z,10640
2017-08-06T09:06:49.328Z,50400
2017-08-06T09:07:50.423Z,11764
2017-08-06T09:08:51.254Z,43936
2017-08-06T09:09:52.741Z,40896
2017-08-06T09:10:53.682Z,8504
2017-08-06T09:11:54.616Z,4532
2017-08-06T09:12:55.483Z,3752
2017-08-06T09:13:56.628Z,2376
2017-08-06T09:14:58.017Z,2968
2017-08-06T09:15:59.504Z,2496
2017-08-06T09:17:00.270Z,60192
2017-08-06T09:18:01.121Z,43840
2017-08-06T09:19:02.168Z,10504
2017-08-06T09:20:03.237Z,39840
2017-08-06T09:21:04.202Z,14240
2017-08-06T09:22:05.074Z,12760
2017-08-06T09:23:05.949Z,12804
2017-08-06T09:24:06.775Z,12524
2017-08-06T09:25:07.727Z,6868
2017-08-06T09:26:08.881Z,8772
2017-08-06T09:27:10.169Z,12136
2017-08-06T09:28:11.051Z,4848
2017-08-06T09:29:12.598Z,16640
2017-08-06T09:30:13.728Z,12992
2017-08-06T09:31:15.045Z,10944
2017-08-06T09:32:15.861Z,10488
2017-08-06T09:33:18.170Z,9936
2017-08-06T09:34:19.523Z,10056
2017-08-06T09:35:20.493Z,5636
2017-08-06T09:36:21.545Z,3892
2017-08-06T09:37:22.427Z,3296
2017-08-06T09:38:23.685Z,8932
2017-08-06T09:39:24.593Z,4348
2017-08-06T09:40:26.166Z,4888
2017-08-06T09:41:27.250Z,5564
2017-08-06T09:42:28.200Z,4052
2017-08-06T09:43:29.151Z,3488
2017-08-06T09:44:30.588Z,2964
2017-08-06T09:45:31.397Z,2764
2017-08-06T09:46:32.363Z,5672
2017-08-06T09:47:33.837Z,6608
2017-08-06T09:48:34.731Z,4712
2017-08-06T09:49:36.030Z,6396
2017-08-06T09:50:37.038Z,5932
2017-08-06T09:51:38.228Z,5388
2017-08-06T09:52:39.110Z,5080
2017-08-06T09:53:40.360Z,5344
2017-08-06T09:54:41.223Z,5880
2017-08-06T09:55:42.224Z,5900
2017-08-06T09:56:43.269Z,5944
2017-08-06T09:57:44.251Z,5732
2017-08-06T09:58:45.202Z,5596
2017-08-06T09:59:46.176Z,5392
2017-08-06T10:00:47.457Z,5236
2017-08-06T10:01:48.365Z,4900
2017-08-06T10:02:49.954Z,4944
2017-08-06T10:03:50.771Z,5120
2017-08-06T10:04:51.929Z,5052
2017-08-06T10:05:52.749Z,5592
2017-08-06T10:06:53.934Z,5420
2017-08-06T10:07:54.829Z,5352
2017-08-06T10:08:55.697Z,3424
2017-08-06T10:09:56.864Z,2828
2017-08-06T10:10:57.738Z,2200
2017-08-06T10:11:58.617Z,1884
2017-08-06T10:12:59.672Z,3580
2017-08-06T10:14:00.447Z,3636
2017-08-06T10:15:01.360Z,3956
2017-08-06T10:16:02.776Z,4060
2017-08-06T10:18:05.658Z,3832
2017-08-06T10:19:07.300Z,3944
2017-08-06T10:20:08.838Z,3712
2017-08-06T10:21:11.381Z,13464
2017-08-06T10:22:12.316Z,1644
2017-08-06T10:23:13.241Z,3244
2017-08-06T10:24:14.196Z,3096
2017-08-06T10:25:15.055Z,2352
2017-08-06T10:26:16.572Z,2344
2017-08-06T10:27:17.755Z,3056
2017-08-06T10:28:19.888Z,3204
2017-08-06T10:29:21.436Z,3296
2017-08-06T10:30:23.830Z,3652
2017-08-06T10:31:29.894Z,3768
2017-08-06T10:32:36.197Z,3560
2017-08-06T10:33:37.212Z,3212
2017-08-06T10:34:42.981Z,3008
2017-08-06T10:35:44.396Z,3328
2017-08-06T10:36:45.555Z,3240
2017-08-06T10:37:46.779Z,3188
2017-08-06T10:38:47.480Z,3064
2017-08-06T10:39:49.464Z,2988
2017-08-06T10:40:50.492Z,2876
2017-08-06T10:41:51.377Z,2832
2017-08-06T10:42:54.140Z,2120
2017-08-06T10:43:54.986Z,1904
2017-08-06T10:44:56.021Z,1832
2017-08-06T10:45:56.979Z,1852
2017-08-06T10:46:57.765Z,1928
2017-08-06T10:47:58.627Z,2868
2017-08-06T10:48:59.441Z,3144
2017-08-06T10:50:00.328Z,3404
2017-08-06T10:51:01.679Z,2316
2017-08-06T10:52:02.546Z,2888
2017-08-06T10:53:04.207Z,2956
2017-08-06T10:54:04.969Z,2924
2017-08-06T10:55:06.262Z,2696
2017-08-06T10:56:07.049Z,2000
2017-08-06T10:57:07.914Z,1804
2017-08-06T10:58:09.496Z,1688
2017-08-06T10:59:10.361Z,1572
2017-08-06T11:00:12.083Z,1532
2017-08-06T11:01:13.493Z,1636
2017-08-06T11:02:14.538Z,1664
2017-08-06T11:03:16.318Z,1744
2017-08-06T11:04:17.662Z,1716
2017-08-06T11:05:18.754Z,1576
2017-08-06T11:06:19.644Z,1752
2017-08-06T11:07:20.450Z,2480
2017-08-06T11:08:21.402Z,2764
2017-08-06T11:09:22.457Z,2636
2017-08-06T11:10:23.597Z,2736
2017-08-06T11:11:24.857Z,2604
2017-08-06T11:12:25.881Z,2652
2017-08-06T11:13:26.905Z,2684
2017-08-06T11:14:28.044Z,2716
2017-08-06T11:15:29.037Z,2680
2017-08-06T11:16:30.223Z,2660
2017-08-06T11:17:31.235Z,2584
2017-08-06T11:18:34.537Z,1980
2017-08-06T11:19:41.457Z,2012
2017-08-06T11:21:43.784Z,1924
2017-08-06T11:22:44.813Z,2668
2017-08-06T11:23:45.918Z,2048
2017-08-06T11:24:47.789Z,2076
2017-08-06T11:25:48.626Z,2160
2017-08-06T11:26:49.547Z,1796
2017-08-06T11:27:50.425Z,1668
2017-08-06T11:28:51.588Z,2372
2017-08-06T11:29:52.565Z,1836
2017-08-06T11:30:54.116Z,2268
2017-08-06T11:31:54.853Z,2276
2017-08-06T11:32:55.765Z,2464
2017-08-06T11:33:56.743Z,2436
2017-08-06T11:34:57.924Z,2528
2017-08-06T11:35:59.131Z,2584
2017-08-06T11:37:00.154Z,2424
2017-08-06T11:38:01.003Z,2536
2017-08-06T11:39:01.926Z,2508
2017-08-06T11:40:02.807Z,2432
2017-08-06T11:41:03.927Z,2376
2017-08-06T11:42:04.861Z,2368
2017-08-06T11:43:05.770Z,2328
2017-08-06T11:44:07.021Z,2264
2017-08-06T11:45:08.280Z,2364
2017-08-06T11:46:09.224Z,2292
2017-08-06T11:47:10.017Z,2232
2017-08-06T11:48:10.929Z,2100
2017-08-06T11:49:11.782Z,1836
2017-08-06T11:50:12.885Z,1720
2017-08-06T11:51:13.773Z,2464
2017-08-06T11:52:15.119Z,2264
2017-08-06T11:53:16.273Z,2320
2017-08-06T11:54:17.197Z,2396
2017-08-06T11:55:18.382Z,2356
2017-08-06T11:56:19.303Z,2240
2017-08-06T11:57:20.180Z,2536
2017-08-06T11:58:21.111Z,2508
2017-08-06T11:59:21.940Z,2588
2017-08-06T12:00:23.226Z,2484
2017-08-06T12:01:24.499Z,2660
2017-08-06T12:02:25.287Z,2624
2017-08-06T12:03:26.110Z,2560
2017-08-06T12:04:27.049Z,2644
2017-08-06T12:05:27.870Z,2404
2017-08-06T12:06:28.930Z,2720
2017-08-06T12:07:29.773Z,2708
2017-08-06T12:08:30.628Z,2288
2017-08-06T12:09:31.708Z,2032
2017-08-06T12:10:32.504Z,1916
2017-08-06T12:11:33.411Z,1796
2017-08-06T12:12:34.521Z,1768
2017-08-06T12:13:35.405Z,2400
2017-08-06T12:14:36.473Z,2432
2017-08-06T12:15:37.278Z,2156
2017-08-06T12:16:38.173Z,2628
2017-08-06T12:17:39.059Z,2724
2017-08-06T12:18:39.910Z,2524
2017-08-06T12:19:40.915Z,2432
2017-08-06T12:20:41.824Z,2396
2017-08-06T12:21:42.726Z,2412
2017-08-06T12:22:43.514Z,2012
2017-08-06T12:23:44.508Z,2068
2017-08-06T12:24:45.462Z,2012
2017-08-06T12:25:46.332Z,2388
2017-08-06T12:26:47.228Z,2608
2017-08-06T12:27:48.012Z,2700
2017-08-06T12:28:48.891Z,2800
2017-08-06T12:29:49.747Z,2600
2017-08-06T12:30:50.716Z,2640
2017-08-06T12:31:51.898Z,2836
2017-08-06T12:32:52.712Z,2796
2017-08-06T12:33:53.489Z,2748
2017-08-06T12:34:54.318Z,2772
2017-08-06T12:35:55.144Z,2824
2017-08-06T12:36:56.407Z,2720
2017-08-06T12:37:57.376Z,2628
2017-08-06T12:38:58.368Z,2536
2017-08-06T12:39:59.318Z,2524
2017-08-06T12:41:00.152Z,2468
2017-08-06T12:42:01.064Z,2396
2017-08-06T12:43:01.950Z,2476
2017-08-06T12:44:02.829Z,2540
2017-08-06T12:45:03.853Z,2500
2017-08-06T12:46:04.783Z,2616
2017-08-06T12:47:05.805Z,2632
2017-08-06T12:48:06.706Z,2520
2017-08-06T12:49:07.563Z,2556
2017-08-06T12:50:08.418Z,2572
2017-08-06T12:51:09.326Z,2620
2017-08-06T12:52:10.156Z,2456
2017-08-06T12:53:11.009Z,2304
2017-08-06T12:54:11.871Z,2388
2017-08-06T12:55:12.798Z,2444
2017-08-06T12:56:13.696Z,2344
2017-08-06T12:57:14.781Z,2452
2017-08-06T12:58:15.623Z,2516
2017-08-06T12:59:16.623Z,2420
2017-08-06T13:00:17.554Z,2336
2017-08-06T13:01:18.431Z,2380
2017-08-06T13:02:19.225Z,2504
2017-08-06T13:03:20.077Z,2428
2017-08-06T13:04:20.911Z,2236
2017-08-06T13:05:21.799Z,2404
2017-08-06T13:06:22.630Z,2432
2017-08-06T13:07:23.466Z,2480
2017-08-06T13:08:24.329Z,2624
2017-08-06T13:09:25.197Z,2436
2017-08-06T13:10:26.307Z,2528
2017-08-06T13:11:27.168Z,2564
2017-08-06T13:12:28.028Z,2460
2017-08-06T13:13:28.808Z,2348
2017-08-06T13:14:29.679Z,2320
2017-08-06T13:15:31.004Z,2280
2017-08-06T13:16:32.265Z,2472
2017-08-06T13:17:33.199Z,2468
2017-08-06T13:18:34.387Z,2376
2017-08-06T13:19:35.266Z,2180
2017-08-06T13:20:36.184Z,1952
2017-08-06T13:21:37.030Z,2000
2017-08-06T13:22:37.847Z,1936
2017-08-06T13:23:38.892Z,1964
2017-08-06T13:24:40.139Z,2012
2017-08-06T13:25:41.018Z,2164
2017-08-06T13:26:42.069Z,2152
2017-08-06T13:27:42.928Z,2144
2017-08-06T13:28:43.717Z,1996
2017-08-06T13:29:44.566Z,2268
2017-08-06T13:30:45.624Z,2400
2017-08-06T13:31:46.627Z,2184
2017-08-06T13:32:47.556Z,2308
2017-08-06T13:33:49.470Z,2424
2017-08-06T13:34:50.587Z,2480
2017-08-06T13:35:51.504Z,2540
2017-08-06T13:36:52.600Z,2164
2017-08-06T13:37:53.331Z,2156
2017-08-06T13:38:54.201Z,2128
2017-08-06T13:39:55.104Z,2476
2017-08-06T13:40:56.058Z,2532
2017-08-06T13:41:57.205Z,2500
2017-08-06T13:42:57.958Z,2440
2017-08-06T13:43:58.881Z,2048
2017-08-06T13:44:59.872Z,2224
2017-08-06T13:46:00.867Z,2300
2017-08-06T13:47:01.860Z,2416
2017-08-06T13:48:03.043Z,2200
2017-08-06T13:49:03.920Z,2224
2017-08-06T13:50:04.823Z,2300
2017-08-06T13:51:05.760Z,2320
2017-08-06T13:52:07.805Z,2396
2017-08-06T13:53:08.669Z,2372
2017-08-06T13:54:09.631Z,2340
2017-08-06T13:55:10.626Z,2428
2017-08-06T13:56:11.470Z,2296
2017-08-06T13:57:12.282Z,2140
2017-08-06T13:58:13.203Z,2232
2017-08-06T13:59:14.091Z,2244
2017-08-06T14:00:15.350Z,2300
2017-08-06T14:01:16.364Z,2044